Time;durP1;ratioP1;P1;durP2;ratioP2;P2;SDS_P1;SDS_P2;PMS_P1;PMS_P2;Temp;Humidity;BMP_temperature;BMP_pressure;BME280_temperature;BME280_humidity;BME280_pressure;Samples;Min_cycle;Max_cycle;Signal;HPM_P1;HPM_P2
2023/01/14 00:01:30;;;;;;;;;3.00;3.00;;;;;11.42;65.85;101536.03;4940361;28;47709;-66
2023/01/14 00:03:55;;;;;;;;;4.00;4.00;;;;;11.45;65.67;101539.50;4942015;28;45377;-66
2023/01/14 00:06:27;;;;;;;;;6.00;3.00;;;;;11.40;65.83;101528.03;4941691;28;45696;-66
2023/01/14 00:08:58;;;;;;;;;3.75;3.00;;;;;11.37;66.28;101522.75;4941132;28;45381;-66
2023/01/14 00:14:09;;;;;;;;;3.00;2.50;;;;;11.43;66.19;101519.94;4929704;28;45597;-66
2023/01/14 00:16:34;;;;;;;;;2.25;2.00;;;;;11.47;66.29;101524.28;4941487;28;45572;-66
2023/01/14 00:18:59;;;;;;;;;3.00;3.00;;;;;11.44;66.50;101523.50;4956146;28;45373;-66
2023/01/14 00:21:25;;;;;;;;;4.75;2.75;;;;;11.44;67.09;101528.84;4949761;28;46613;-66
2023/01/14 00:23:53;;;;;;;;;4.00;4.00;;;;;11.41;67.30;101500.41;4942959;28;45337;-66
2023/01/14 00:26:19;;;;;;;;;2.25;2.25;;;;;11.49;66.80;101503.78;4957737;28;45447;-66
2023/01/14 00:28:49;;;;;;;;;3.00;2.50;;;;;11.46;67.72;101498.50;4957741;28;45411;-66
2023/01/14 00:31:21;;;;;;;;;3.75;3.00;;;;;11.52;67.94;101492.09;4955187;28;47253;-66
2023/01/14 00:33:46;;;;;;;;;9.50;4.50;;;;;11.50;67.92;101486.81;4941545;28;45393;-66
2023/01/14 00:36:14;;;;;;;;;5.75;3.00;;;;;11.54;68.07;101484.06;4942235;28;45957;-66
2023/01/14 00:38:40;;;;;;;;;4.00;2.00;;;;;11.56;68.53;101479.53;4942597;28;45482;-66
2023/01/14 00:41:11;;;;;;;;;5.25;4.25;;;;;11.59;68.68;101483.00;4941295;28;45580;-66
2023/01/14 00:43:42;;;;;;;;;6.00;3.00;;;;;11.60;68.83;101481.25;4938057;28;45348;-66
2023/01/14 00:46:12;;;;;;;;;4.00;2.25;;;;;11.61;69.35;101466.94;4940111;28;45419;-66
2023/01/14 00:48:38;;;;;;;;;4.50;3.00;;;;;11.60;69.46;101466.06;4942405;28;45429;-66
2023/01/14 00:51:04;;;;;;;;;3.50;2.00;;;;;11.58;69.74;101467.91;4942262;28;46413;-66
2023/01/14 00:53:30;;;;;;;;;2.25;1.75;;;;;11.51;69.91;101442.25;4941502;28;45336;-66
2023/01/14 00:55:56;;;;;;;;;1.00;1.00;;;;;11.61;70.02;101450.88;4941272;28;45322;-66
2023/01/14 00:58:21;;;;;;;;;2.25;1.75;;;;;11.42;70.61;101407.72;4946194;28;45520;-66
2023/01/14 01:00:47;;;;;;;;;3.00;1.00;;;;;11.62;70.32;101434.81;4941822;28;46432;-66
2023/01/14 01:03:14;;;;;;;;;3.00;2.25;;;;;11.62;70.85;101436.59;4942188;28;45628;-66
2023/01/14 01:05:40;;;;;;;;;1.25;1.25;;;;;11.62;70.96;101431.25;4941332;28;45368;-66
2023/01/14 01:08:12;;;;;;;;;3.75;2.50;;;;;11.63;71.12;101433.03;4942190;28;45381;-66
2023/01/14 01:10:38;;;;;;;;;5.00;3.00;;;;;11.62;71.03;101424.09;4939965;28;47106;-66
2023/01/14 01:13:04;;;;;;;;;2.50;2.25;;;;;11.63;71.25;101419.66;4941850;28;45360;-66
2023/01/14 01:15:33;;;;;;;;;3.00;3.00;;;;;11.61;71.46;101406.34;4940691;28;45786;-66
2023/01/14 01:18:00;;;;;;;;;3.25;3.25;;;;;11.64;71.59;101402.69;4955794;28;45328;-66
2023/01/14 01:20:25;;;;;;;;;2.25;2.00;;;;;11.60;71.53;101390.31;4953807;28;47601;-66
2023/01/14 01:22:50;;;;;;;;;4.50;3.50;;;;;11.63;71.26;101388.44;4941920;28;45442;-66
2023/01/14 01:25:16;;;;;;;;;3.00;3.00;;;;;11.68;71.22;101385.66;4941060;28;45299;-66
2023/01/14 01:27:41;;;;;;;;;6.00;3.00;;;;;11.67;71.14;101384.75;4941181;28;45524;-66
2023/01/14 01:30:07;;;;;;;;;2.25;2.25;;;;;11.67;71.76;101394.59;4939475;28;46882;-66
2023/01/14 01:32:33;;;;;;;;;4.00;2.75;;;;;11.72;71.66;101389.97;4941585;28;45373;-66
2023/01/14 01:34:58;;;;;;;;;4.00;3.00;;;;;11.72;71.63;101392.66;4941908;28;45438;-66
2023/01/14 01:37:24;;;;;;;;;5.00;3.25;;;;;11.73;71.72;101394.44;4940781;28;45426;-66
2023/01/14 01:39:49;;;;;;;;;3.50;2.75;;;;;11.67;72.15;101374.06;4951242;28;45563;-66
2023/01/14 01:42:15;;;;;;;;;5.50;3.75;;;;;11.68;72.14;101374.94;4933489;28;45353;-66
2023/01/14 01:44:41;;;;;;;;;3.00;3.00;;;;;11.75;72.31;101376.53;4946500;28;45596;-66
2023/01/14 01:47:08;;;;;;;;;3.25;2.00;;;;;11.75;72.46;101389.91;4940510;28;45374;-66
2023/01/14 01:49:35;;;;;;;;;3.50;3.00;;;;;11.74;72.38;101377.44;4941405;28;45338;-66
2023/01/14 01:52:09;;;;;;;;;3.75;3.00;;;;;11.75;72.78;101384.56;4941506;28;45335;-66
2023/01/14 01:54:41;;;;;;;;;2.00;1.00;;;;;11.71;72.80;101388.25;4936741;28;45507;-66
2023/01/14 01:57:09;;;;;;;;;2.25;1.75;;;;;11.79;72.74;101391.56;4941261;28;45491;-66
2023/01/14 01:59:39;;;;;;;;;3.25;2.00;;;;;11.80;72.55;101384.44;4945188;28;45451;-66
2023/01/14 02:02:05;;;;;;;;;2.50;1.00;;;;;11.84;72.88;101384.31;4939601;28;45504;-66
2023/01/14 02:04:31;;;;;;;;;2.25;2.25;;;;;11.81;72.95;101375.47;4941566;28;45689;-66
2023/01/14 02:06:56;;;;;;;;;4.75;1.00;;;;;11.83;73.07;101366.50;4939384;28;45367;-66
2023/01/14 02:09:22;;;;;;;;;3.00;1.75;;;;;11.81;73.48;101363.00;4957827;28;47573;-66
2023/01/14 02:12:06;;;;;;;;;2.00;2.00;;;;;11.89;73.36;101377.94;4941286;28;45811;-66
2023/01/14 02:15:16;;;;;;;;;5.00;2.00;;;;;11.90;73.21;101363.66;4952029;28;45532;-66
2023/01/14 02:17:50;;;;;;;;;3.25;2.75;;;;;11.92;73.72;101348.47;4929687;28;45312;-66
2023/01/14 02:20:25;;;;;;;;;2.75;1.00;;;;;11.90;73.72;101331.56;4955669;28;47121;-66
2023/01/14 02:23:16;;;;;;;;;2.00;1.75;;;;;11.91;73.85;101328.88;4941117;28;46649;-66
2023/01/14 02:26:18;;;;;;;;;1.50;1.50;;;;;11.94;74.38;101328.78;4940201;28;45529;-66
2023/01/14 02:29:21;;;;;;;;;2.00;2.00;;;;;11.96;73.93;101320.69;4929614;28;45604;-66
2023/01/14 02:31:46;;;;;;;;;2.25;2.25;;;;;11.97;74.25;101317.13;4939251;28;45422;-66
2023/01/14 02:34:36;;;;;;;;;1.50;1.50;;;;;11.91;74.32;101307.47;4940059;28;45283;-66
2023/01/14 02:37:05;;;;;;;;;1.00;1.00;;;;;11.99;74.08;101318.81;4930424;28;45366;-66
2023/01/14 02:39:38;;;;;;;;;1.00;1.00;;;;;12.02;74.12;101313.38;4940375;28;45615;-66
2023/01/14 02:45:12;;;;;;;;;1.50;1.00;;;;;12.04;74.22;101310.66;4940814;28;45310;-66
2023/01/14 02:47:41;;;;;;;;;3.00;1.75;;;;;12.04;74.75;101314.22;4955665;28;45419;-65
2023/01/14 02:50:07;;;;;;;;;1.25;1.25;;;;;12.00;74.68;101301.84;4955582;28;45822;-66
2023/01/14 02:52:32;;;;;;;;;1.00;1.00;;;;;12.02;74.55;101307.16;4939180;28;48353;-66
2023/01/14 02:55:00;;;;;;;;;0.25;0.00;;;;;12.04;74.57;101299.94;4954528;28;45316;-66
2023/01/14 02:57:41;;;;;;;;;1.00;1.00;;;;;12.10;74.70;101307.81;4940484;28;45354;-66
2023/01/14 03:00:15;;;;;;;;;1.00;1.00;;;;;12.11;74.67;101297.97;4940686;28;45520;-66
2023/01/14 03:02:55;;;;;;;;;1.00;1.00;;;;;12.10;74.86;101293.56;4940241;28;45501;-66
2023/01/14 03:05:51;;;;;;;;;1.50;1.00;;;;;12.09;74.89;101289.97;4954449;28;45501;-66
2023/01/14 03:08:38;;;;;;;;;3.00;1.00;;;;;12.12;74.72;101289.91;4941931;28;45413;-66
2023/01/14 03:11:07;;;;;;;;;2.00;0.00;;;;;12.03;74.69;101274.13;4946781;28;45588;-66
2023/01/14 03:13:44;;;;;;;;;1.50;0.50;;;;;12.17;74.43;101289.75;4940227;28;46082;-66
2023/01/14 03:16:27;;;;;;;;;0.00;0.00;;;;;12.14;74.59;101271.13;4935065;28;45531;-66
2023/01/14 03:19:01;;;;;;;;;0.00;0.00;;;;;12.19;74.57;101280.75;4938073;28;45738;-66
2023/01/14 03:21:33;;;;;;;;;1.75;0.75;;;;;12.14;74.58;101263.09;4939156;28;45555;-66
2023/01/14 03:24:05;;;;;;;;;0.00;0.00;;;;;12.19;74.56;101259.34;4953272;28;47066;-66
2023/01/14 03:26:35;;;;;;;;;2.75;0.75;;;;;12.18;74.43;101256.75;4938937;28;45394;-66
2023/01/14 03:29:05;;;;;;;;;1.25;1.25;;;;;12.13;74.53;101238.13;4939591;28;45724;-66
2023/01/14 03:31:34;;;;;;;;;0.25;0.25;;;;;12.16;74.46;101238.06;4953987;28;45649;-66
2023/01/14 03:34:07;;;;;;;;;0.25;0.00;;;;;12.17;74.61;101230.88;4940127;28;46118;-66
2023/01/14 03:36:35;;;;;;;;;1.75;0.00;;;;;12.14;74.59;101214.91;4939091;28;45598;-66
2023/01/14 03:39:09;;;;;;;;;1.00;0.00;;;;;12.17;74.43;101207.66;4941016;28;45480;-66
2023/01/14 03:44:30;;;;;;;;;0.00;0.00;;;;;12.12;74.51;101192.69;4935648;28;45389;-66
2023/01/14 03:46:56;;;;;;;;;1.25;0.00;;;;;12.16;74.42;101184.53;4938942;28;45349;-66
2023/01/14 03:49:22;;;;;;;;;1.00;1.00;;;;;12.17;74.25;101180.91;4940040;28;45442;-66
2023/01/14 03:52:00;;;;;;;;;1.25;0.50;;;;;12.19;74.04;101183.53;4939999;28;45429;-66
2023/01/14 03:55:09;;;;;;;;;1.75;0.50;;;;;12.12;74.31;101165.94;4939765;28;45565;-66
2023/01/14 03:58:11;;;;;;;;;0.25;0.25;;;;;12.18;74.33;101158.59;4955398;28;45405;-66
2023/01/14 04:00:47;;;;;;;;;4.00;1.00;;;;;12.11;74.39;101150.78;4934205;28;45341;-66
2023/01/14 04:03:14;;;;;;;;;1.00;1.00;;;;;12.11;74.30;101148.13;4939832;28;45432;-66
2023/01/14 04:05:40;;;;;;;;;2.00;0.00;;;;;12.20;74.25;101161.22;4938595;28;47743;-66
2023/01/14 04:08:07;;;;;;;;;2.25;1.00;;;;;12.21;74.28;101154.91;4955553;28;45422;-66
2023/01/14 04:10:33;;;;;;;;;1.75;1.00;;;;;12.19;74.47;101141.56;4935746;28;45472;-66
2023/01/14 04:15:42;;;;;;;;;2.25;1.50;;;;;12.19;74.37;101136.22;4929650;28;45421;-66
2023/01/14 04:18:07;;;;;;;;;1.75;1.50;;;;;12.16;74.08;101114.03;4942889;28;45275;-66
2023/01/14 04:20:33;;;;;;;;;1.50;0.75;;;;;12.18;74.12;101098.84;4943000;28;45500;-66
2023/01/14 04:22:58;;;;;;;;;4.00;1.00;;;;;12.15;74.18;101081.06;4941883;28;45600;-66
2023/01/14 04:25:23;;;;;;;;;1.00;1.00;;;;;12.05;74.25;101067.13;4943005;28;45335;-66
2023/01/14 04:27:49;;;;;;;;;2.00;2.00;;;;;12.22;74.04;101087.94;4945558;28;45373;-66
2023/01/14 04:30:15;;;;;;;;;3.00;1.00;;;;;12.23;73.90;101086.19;4930184;28;45292;-66
2023/01/14 04:32:40;;;;;;;;;5.00;1.25;;;;;12.22;74.31;101082.59;4940306;28;45520;-66
2023/01/14 04:35:06;;;;;;;;;2.00;0.75;;;;;12.19;74.22;101076.47;4941795;28;46181;-66
2023/01/14 04:37:31;;;;;;;;;5.00;2.00;;;;;12.22;73.90;101076.38;4941528;28;45570;-66
2023/01/14 04:39:57;;;;;;;;;3.00;2.00;;;;;12.17;74.10;101067.63;4942311;28;45552;-66
2023/01/14 04:42:28;;;;;;;;;2.25;2.00;;;;;12.22;74.22;101076.38;4942616;28;45346;-66
2023/01/14 04:44:56;;;;;;;;;4.00;2.00;;;;;12.17;74.53;101067.63;4941281;28;47313;-66
2023/01/14 04:47:22;;;;;;;;;2.50;2.50;;;;;12.17;74.29;101068.50;4941345;28;45531;-66
2023/01/14 04:49:47;;;;;;;;;3.75;3.00;;;;;12.17;73.79;101060.47;4942721;28;45466;-66
2023/01/14 04:52:13;;;;;;;;;3.25;1.00;;;;;12.20;74.38;101067.53;4942369;28;45624;-66
2023/01/14 04:54:38;;;;;;;;;1.75;1.75;;;;;12.11;74.20;101044.66;4942342;28;46287;-66
2023/01/14 04:57:04;;;;;;;;;2.00;1.00;;;;;12.15;74.45;101045.41;4942266;28;45572;-66
2023/01/14 04:59:29;;;;;;;;;2.25;1.00;;;;;12.16;74.62;101055.16;4944901;28;45448;-66
2023/01/14 05:01:55;;;;;;;;;2.00;1.00;;;;;12.18;74.33;101031.94;4941931;28;45387;-66
2023/01/14 05:04:20;;;;;;;;;2.00;1.00;;;;;12.17;74.38;101024.81;4957089;28;47977;-66
2023/01/14 05:06:45;;;;;;;;;5.00;1.00;;;;;12.22;74.29;101012.16;4942152;28;45436;-66
2023/01/14 05:09:11;;;;;;;;;2.75;2.25;;;;;12.22;74.22;101020.19;4942175;28;45494;-66
2023/01/14 05:11:36;;;;;;;;;3.00;1.00;;;;;12.19;74.12;101010.44;4934006;28;45458;-66
2023/01/14 05:14:02;;;;;;;;;3.25;1.50;;;;;12.17;74.12;101020.31;4940288;28;45444;-66
2023/01/14 05:16:27;;;;;;;;;3.75;1.00;;;;;12.15;74.12;101024.00;4941836;28;45379;-66
2023/01/14 05:18:53;;;;;;;;;2.00;1.00;;;;;12.12;74.21;101021.44;4942149;28;45396;-66
2023/01/14 05:21:19;;;;;;;;;1.50;0.50;;;;;12.11;74.26;101036.63;4941818;28;45325;-66
2023/01/14 05:23:45;;;;;;;;;2.00;0.50;;;;;12.03;74.14;101020.81;4955621;28;47037;-66
2023/01/14 05:26:10;;;;;;;;;2.75;1.00;;;;;12.08;73.95;101011.75;4956805;28;45795;-66
2023/01/14 05:28:36;;;;;;;;;4.00;1.00;;;;;12.09;74.07;101006.34;4943287;28;45362;-66
2023/01/14 05:31:02;;;;;;;;;4.25;1.00;;;;;12.13;74.15;101017.81;4940901;28;45231;-66
2023/01/14 05:33:27;;;;;;;;;0.75;0.50;;;;;12.06;73.80;100993.06;4941673;28;46094;-66
2023/01/14 05:35:57;;;;;;;;;3.25;1.00;;;;;12.12;73.81;101005.38;4954295;28;45685;-66
2023/01/14 05:38:23;;;;;;;;;2.75;1.75;;;;;12.11;73.87;100993.81;4929474;28;45339;-66
2023/01/14 05:40:48;;;;;;;;;2.00;1.00;;;;;12.10;73.74;100989.38;4941602;28;45270;-66
2023/01/14 05:46:06;;;;;;;;;1.50;0.00;;;;;12.10;73.63;100975.13;4940406;28;45516;-66
2023/01/14 05:48:32;;;;;;;;;2.75;2.75;;;;;12.09;73.90;100958.16;4933037;28;45453;-66
2023/01/14 05:50:59;;;;;;;;;1.25;0.75;;;;;12.07;73.69;100943.97;4929473;28;45327;-66
2023/01/14 05:53:27;;;;;;;;;1.00;1.00;;;;;12.15;73.40;100965.13;4941547;28;45331;-66
2023/01/14 05:55:52;;;;;;;;;3.50;1.00;;;;;12.12;73.65;100951.84;4940153;28;45527;-66
2023/01/14 05:58:18;;;;;;;;;1.00;1.00;;;;;12.11;73.08;100942.06;4958749;28;45353;-66
2023/01/14 06:06:20;;;;;;;;;0.25;0.25;;;;;12.11;73.29;100920.66;4941374;28;45551;-66
2023/01/14 06:08:46;;;;;;;;;1.75;1.00;;;;;12.11;73.39;100936.72;4938736;28;45523;-66
2023/01/14 06:11:11;;;;;;;;;2.50;0.50;;;;;12.11;73.22;100924.22;4942194;28;45368;-66
2023/01/14 06:13:37;;;;;;;;;1.25;1.00;;;;;12.14;73.18;100921.41;4941117;28;45500;-66
2023/01/14 06:16:06;;;;;;;;;1.00;1.00;;;;;12.11;73.22;100924.22;4940979;28;45431;-66
2023/01/14 06:18:37;;;;;;;;;0.75;0.25;;;;;12.04;73.07;100906.63;4945937;28;45512;-66
2023/01/14 06:21:06;;;;;;;;;1.75;1.00;;;;;12.14;73.11;100918.75;4940754;28;45395;-66
2023/01/14 06:23:32;;;;;;;;;1.00;0.50;;;;;12.15;73.04;100900.91;4940972;28;46353;-66
2023/01/14 06:25:57;;;;;;;;;4.50;1.00;;;;;12.13;72.79;100906.31;4941207;28;45338;-66
2023/01/14 06:28:22;;;;;;;;;0.00;0.00;;;;;12.13;72.88;100913.44;4940249;28;45383;-66
2023/01/14 06:30:48;;;;;;;;;0.50;0.25;;;;;12.08;72.87;100905.59;4932427;28;45473;-66
2023/01/14 06:33:13;;;;;;;;;1.75;1.00;;;;;12.03;72.75;100894.19;4935300;28;46250;-66
2023/01/14 06:35:42;;;;;;;;;2.00;2.00;;;;;12.04;73.14;100882.53;4939729;28;45335;-66
2023/01/14 06:38:08;;;;;;;;;2.75;1.00;;;;;12.03;72.89;100875.47;4940020;28;45540;-66
2023/01/14 06:40:35;;;;;;;;;3.00;0.00;;;;;11.98;72.91;100880.97;4936939;28;45579;-66
2023/01/14 06:43:00;;;;;;;;;3.00;1.00;;;;;11.96;73.12;100861.44;4942202;28;45510;-66
2023/01/14 06:45:26;;;;;;;;;3.50;1.00;;;;;11.93;73.11;100856.19;4939987;28;45693;-66
2023/01/14 06:47:52;;;;;;;;;2.50;1.00;;;;;11.94;73.16;100857.06;4947637;28;45700;-66
2023/01/14 06:50:18;;;;;;;;;0.50;0.50;;;;;11.93;73.34;100864.22;4940139;28;45498;-66
2023/01/14 06:52:44;;;;;;;;;1.75;1.25;;;;;11.97;73.03;100860.50;4944646;28;45824;-66
2023/01/14 06:55:10;;;;;;;;;1.75;1.00;;;;;11.95;73.24;100861.50;4948662;28;45326;-66
2023/01/14 06:57:36;;;;;;;;;1.00;1.00;;;;;12.00;73.19;100854.19;4954672;28;45364;-66
2023/01/14 07:00:01;;;;;;;;;2.00;1.50;;;;;12.04;73.32;100848.66;4943761;28;45322;-66
2023/01/14 07:02:26;;;;;;;;;3.00;1.50;;;;;12.00;73.01;100854.19;4938489;28;46281;-66
2023/01/14 07:04:52;;;;;;;;;1.75;0.25;;;;;11.95;73.18;100840.97;4939987;28;45487;-66
2023/01/14 07:07:18;;;;;;;;;2.75;1.00;;;;;12.03;73.67;100848.72;4940688;28;45333;-66
2023/01/14 07:09:44;;;;;;;;;1.00;0.00;;;;;12.07;73.37;100853.00;4941624;28;45516;-66
2023/01/14 07:12:09;;;;;;;;;3.25;1.25;;;;;12.02;73.23;100821.06;4948172;28;46606;-66
2023/01/14 07:14:34;;;;;;;;;2.00;1.00;;;;;12.01;73.43;100837.16;4940274;28;45369;-66
2023/01/14 07:17:03;;;;;;;;;1.00;1.00;;;;;12.05;73.28;100830.78;4939227;28;45377;-66
2023/01/14 07:19:29;;;;;;;;;1.75;1.00;;;;;11.96;73.34;100820.41;4938101;28;45344;-66
2023/01/14 07:21:54;;;;;;;;;1.25;1.00;;;;;12.01;73.26;100819.34;4920068;28;47277;-66
2023/01/14 07:24:19;;;;;;;;;1.50;1.00;;;;;11.99;73.85;100833.69;4941356;28;45414;-66
2023/01/14 07:26:45;;;;;;;;;4.00;1.00;;;;;11.97;73.77;100824.84;4946314;28;45468;-66
2023/01/14 07:29:10;;;;;;;;;2.00;1.00;;;;;11.93;73.92;100815.19;4940011;28;45549;-66
2023/01/14 07:31:36;;;;;;;;;0.00;0.00;;;;;11.93;74.16;100816.06;4937717;28;46433;-66
2023/01/14 07:34:01;;;;;;;;;4.25;1.75;;;;;11.93;73.92;100815.19;4939377;28;45331;-66
2023/01/14 07:36:26;;;;;;;;;3.50;2.50;;;;;11.84;74.11;100784.25;4938526;28;45406;-66
2023/01/14 07:38:52;;;;;;;;;2.00;1.00;;;;;11.91;74.00;100799.22;4932787;28;45338;-64
2023/01/14 07:41:18;;;;;;;;;2.25;1.50;;;;;11.89;74.20;100790.31;4939076;28;45306;-65
2023/01/14 07:43:44;;;;;;;;;2.50;1.50;;;;;11.85;74.25;100796.72;4947857;28;45393;-65
2023/01/14 07:46:10;;;;;;;;;1.50;1.00;;;;;11.91;74.64;100790.25;4942649;28;45481;-65
2023/01/14 07:48:36;;;;;;;;;1.00;0.00;;;;;11.90;74.10;100773.34;4957657;28;45366;-65
2023/01/14 07:51:03;;;;;;;;;1.00;1.00;;;;;11.92;74.30;100778.69;4956182;28;47469;-65
2023/01/14 07:53:28;;;;;;;;;2.75;0.75;;;;;11.92;74.37;100784.03;4941870;28;45323;-64
2023/01/14 07:55:54;;;;;;;;;2.50;1.00;;;;;11.90;74.55;100770.69;4941785;28;45737;-65
2023/01/14 07:58:21;;;;;;;;;2.25;1.00;;;;;11.86;74.29;100761.00;4945520;28;45591;-64
2023/01/14 08:00:47;;;;;;;;;1.25;1.25;;;;;11.91;74.30;100763.50;4940776;28;46427;-64
2023/01/14 08:03:12;;;;;;;;;2.00;0.00;;;;;11.87;74.58;100760.94;4950108;28;45355;-65
2023/01/14 08:05:38;;;;;;;;;1.25;0.00;;;;;11.86;74.68;100739.59;4942055;28;45565;-64
2023/01/14 08:08:03;;;;;;;;;1.25;1.00;;;;;11.99;74.53;100761.47;4941690;28;45404;-65
2023/01/14 08:10:28;;;;;;;;;0.00;0.00;;;;;11.95;74.95;100754.50;4942715;28;46030;-64
2023/01/14 08:12:54;;;;;;;;;1.00;1.00;;;;;11.98;74.73;100741.88;4940623;28;45762;-64
2023/01/14 08:15:19;;;;;;;;;0.50;0.00;;;;;11.97;74.85;100741.94;4940031;28;45481;-64
2023/01/14 08:17:44;;;;;;;;;2.75;1.00;;;;;11.97;74.96;100734.75;4942615;28;45543;-64
2023/01/14 08:20:11;;;;;;;;;1.00;0.00;;;;;11.92;75.32;100712.66;4942596;28;45699;-64
2023/01/14 08:22:37;;;;;;;;;2.00;0.50;;;;;11.97;75.12;100720.53;4941226;28;45545;-64
2023/01/14 08:25:03;;;;;;;;;2.00;1.00;;;;;11.98;75.39;100701.75;4942995;28;45349;-64
2023/01/14 08:27:29;;;;;;;;;4.50;1.00;;;;;11.98;75.49;100709.75;4940909;28;45303;-64
2023/01/14 08:29:55;;;;;;;;;3.00;1.00;;;;;12.03;75.59;100717.63;4942156;28;46105;-65
2023/01/14 08:32:21;;;;;;;;;1.50;0.50;;;;;12.01;75.60;100722.13;4955123;28;45750;-66
2023/01/14 08:34:46;;;;;;;;;2.00;1.00;;;;;12.00;75.83;100712.38;4943898;28;45460;-66
2023/01/14 08:37:11;;;;;;;;;2.00;1.75;;;;;12.03;75.59;100706.91;4941085;28;45441;-66
2023/01/14 08:39:37;;;;;;;;;1.00;1.00;;;;;12.01;76.12;100701.63;4953027;28;47846;-66
2023/01/14 08:42:02;;;;;;;;;0.25;0.00;;;;;12.04;75.76;100677.44;4939981;28;45466;-66
2023/01/14 08:44:28;;;;;;;;;3.25;0.00;;;;;12.08;75.89;100686.19;4941273;28;45475;-66
2023/01/14 08:46:53;;;;;;;;;1.00;1.00;;;;;12.12;75.93;100703.88;4936054;28;45501;-66
2023/01/14 08:49:19;;;;;;;;;6.75;1.00;;;;;12.05;75.91;100687.19;4942193;28;46943;-66
2023/01/14 08:51:44;;;;;;;;;0.00;0.00;;;;;12.05;76.07;100689.84;4954772;28;45438;-66
2023/01/14 08:54:09;;;;;;;;;1.00;1.00;;;;;12.10;76.12;100699.53;4940128;28;45390;-66
2023/01/14 08:56:35;;;;;;;;;0.00;0.00;;;;;12.09;76.19;100693.28;4955359;28;45858;-66
2023/01/14 08:59:01;;;;;;;;;1.00;1.00;;;;;12.14;76.46;100680.59;4953108;28;45629;-66
2023/01/14 09:01:27;;;;;;;;;1.00;1.00;;;;;12.07;76.35;100681.78;4942401;28;45439;-66
2023/01/14 09:03:57;;;;;;;;;1.00;0.00;;;;;12.10;76.33;100678.13;4939591;28;45383;-66
2023/01/14 09:06:22;;;;;;;;;2.00;0.00;;;;;12.17;76.51;100693.84;4939015;28;45405;-66
2023/01/14 09:17:17;;;;;;;;;3.00;1.00;;;;;12.21;76.36;100654.44;4939211;28;45757;-66
2023/01/14 09:19:46;;;;;;;;;0.00;0.00;;;;;12.16;76.62;100629.69;4941327;28;45438;-66
2023/01/14 09:22:15;;;;;;;;;1.00;1.00;;;;;12.20;76.82;100658.09;4940377;28;45449;-66
2023/01/14 09:24:41;;;;;;;;;1.00;1.00;;;;;12.17;77.01;100659.06;4941061;28;45449;-66
2023/01/14 09:27:06;;;;;;;;;0.50;0.00;;;;;12.19;77.36;100648.31;4937430;28;45384;-66
2023/01/14 09:29:32;;;;;;;;;0.00;0.00;;;;;12.12;77.55;100639.66;4941323;28;45438;-66
2023/01/14 09:31:57;;;;;;;;;1.50;1.50;;;;;12.11;77.41;100637.94;4940027;28;45834;-66
2023/01/14 09:34:23;;;;;;;;;3.00;0.25;;;;;12.08;77.87;100634.47;4958797;28;45538;-66
2023/01/14 09:36:49;;;;;;;;;2.00;0.75;;;;;12.09;77.70;100623.72;4939440;28;45292;-66
2023/01/14 09:39:15;;;;;;;;;2.00;1.00;;;;;12.12;77.92;100620.06;4935725;28;47754;-66
2023/01/14 09:41:50;;;;;;;;;1.50;0.25;;;;;12.22;78.14;100643.69;4940186;28;45454;-66
2023/01/14 09:44:16;;;;;;;;;1.50;1.00;;;;;12.23;78.31;100642.75;4944416;28;45394;-66
2023/01/14 09:46:41;;;;;;;;;0.00;0.00;;;;;12.22;78.31;100632.97;4940853;28;45372;-65
2023/01/14 09:49:09;;;;;;;;;1.00;0.00;;;;;12.21;78.24;100631.25;4941246;28;46369;-66
2023/01/14 09:51:47;;;;;;;;;2.50;1.00;;;;;12.22;78.41;100627.63;4939749;28;45437;-66
2023/01/14 09:54:40;;;;;;;;;1.00;1.00;;;;;12.25;78.26;100634.69;4941487;28;45334;-66
2023/01/14 09:57:19;;;;;;;;;0.75;0.00;;;;;12.22;78.12;100626.78;4952099;28;45760;-69
2023/01/14 10:00:05;;;;;;;;;3.50;2.00;;;;;12.26;78.29;100640.88;4962830;28;47340;-67
2023/01/14 10:03:06;;;;;;;;;2.00;0.75;;;;;12.15;78.54;100618.13;4939915;28;45379;-65
2023/01/14 10:05:33;;;;;;;;;1.00;1.00;;;;;12.23;78.69;100629.38;4940045;28;45572;-65
2023/01/14 10:08:05;;;;;;;;;2.75;1.75;;;;;12.26;78.65;100638.22;4940600;28;45494;-65
2023/01/14 10:10:30;;;;;;;;;3.00;0.75;;;;;12.29;78.51;100635.41;4943029;28;45489;-65
2023/01/14 10:13:02;;;;;;;;;5.25;2.00;;;;;12.24;78.87;100619.53;4940096;28;45382;-65
2023/01/14 10:15:37;;;;;;;;;1.00;1.00;;;;;12.28;78.95;100610.47;4938936;28;45561;-65
2023/01/14 10:18:39;;;;;;;;;4.00;1.25;;;;;12.29;78.51;100625.56;4939697;28;45399;-65
2023/01/14 10:21:25;;;;;;;;;1.00;1.00;;;;;12.32;78.70;100613.88;4937060;28;45443;-64
2023/01/14 10:23:50;;;;;;;;;2.75;1.00;;;;;12.34;78.66;100609.34;4941341;28;45650;-66
2023/01/14 10:26:18;;;;;;;;;0.75;0.75;;;;;12.33;78.51;100589.72;4941205;28;45291;-68
2023/01/14 10:28:46;;;;;;;;;2.00;0.00;;;;;12.33;78.59;100584.38;4941123;28;45624;-66
2023/01/14 10:31:26;;;;;;;;;2.00;1.00;;;;;12.36;78.58;100569.97;4939807;28;45493;-66
2023/01/14 10:51:17;;;;;;;;;;;;;;;;;;;;;
2023/01/14 11:08:06;;;;;;;;;;;;;;;;;;;;;
2023/01/14 11:14:58;;;;;;;;;;;;;;;;;;;;;
2023/01/14 11:32:28;;;;;;;;;;;;;;;;;;;;;
2023/01/14 11:35:32;;;;;;;;;;;;;;;;;;;;;
2023/01/14 11:57:18;;;;;;;;;;;;;;;;;;;;;
2023/01/14 12:07:33;;;;;;;;;;;;;;;;;;;;;
2023/01/14 12:10:34;;;;;;;;;;;;;;;;;;;;;
2023/01/14 12:17:32;;;;;;;;;;;;;;;;;;;;;
2023/01/14 12:20:35;;;;;;;;;1.00;1.00;;;;;12.80;79.67;100328.81;4950784;28;73518;-62
2023/01/14 12:23:40;;;;;;;;;;;;;;;;;;;;;
2023/01/14 12:26:47;;;;;;;;;;;;;;;;;;;;;
2023/01/14 12:37:06;;;;;;;;;;;;;;;;;;;;;
2023/01/14 12:46:57;;;;;;;;;2.00;0.00;;;;;12.98;80.07;100260.06;4949702;28;45321;-62
2023/01/14 12:50:13;;;;;;;;;;;;;;;;;;;;;
2023/01/14 12:53:17;;;;;;;;;5.00;3.00;;;;;12.90;79.63;100211.38;4961045;28;74562;-62
2023/01/14 12:56:19;;;;;;;;;;;;;;;;;;;;;
2023/01/14 12:59:16;;;;;;;;;;;;;;;;;;;;;
2023/01/14 13:02:31;;;;;;;;;;;;;;;;;;;;;
2023/01/14 13:05:44;;;;;;;;;;;;;;;;;;;;;
2023/01/14 13:08:48;;;;;;;;;1.00;1.00;;;;;13.04;79.96;100197.25;4962479;28;75245;-62
2023/01/14 13:12:10;;;;;;;;;3.00;2.00;;;;;13.00;80.22;100182.28;4952590;28;45500;-62
2023/01/14 13:14:54;;;;;;;;;3.00;3.00;;;;;13.16;80.01;100208.22;4943299;28;45421;-62
2023/01/14 13:17:35;;;;;;;;;;;;;;;;;;;;;
2023/01/14 13:20:36;;;;;;;;;3.50;2.25;;;;;13.29;80.38;100208.44;4960103;28;74429;-62
2023/01/14 13:24:16;;;;;;;;;;;;;;;;;;;;;
2023/01/14 13:29:55;;;;;;;;;;;;;;;;;;;;;
2023/01/14 13:32:59;;;;;;;;;;;;;;;;;;;;;
2023/01/14 13:36:13;;;;;;;;;;;;;;;;;;;;;
2023/01/14 13:39:01;;;;;;;;;;;;;;;;;;;;;
2023/01/14 13:48:42;;;;;;;;;;;;;;;;;;;;;
2023/01/14 13:51:48;;;;;;;;;;;;;;;;;;;;;
2023/01/14 13:54:45;;;;;;;;;;;;;;;;;;;;;
2023/01/14 13:57:59;;;;;;;;;;;;;;;;;;;;;
2023/01/14 14:01:24;;;;;;;;;;;;;;;;;;;;;
2023/01/14 14:04:04;;;;;;;;;;;;;;;;;;;;;
2023/01/14 14:09:32;;;;;;;;;1.75;1.00;;;;;13.18;82.96;100095.59;4970837;28;46756;-62
2023/01/14 14:15:50;;;;;;;;;;;;;;;;;;;;;
2023/01/14 14:18:30;;;;;;;;;2.00;2.00;;;;;13.23;83.64;100082.81;4958328;28;72871;-61
2023/01/14 14:21:12;;;;;;;;;;;;;;;;;;;;;
2023/01/14 14:24:14;;;;;;;;;1.00;1.00;;;;;13.26;83.64;100090.66;4957705;28;72886;-62
2023/01/14 14:27:05;;;;;;;;;1.00;1.00;;;;;13.39;83.87;100104.31;4970743;28;45483;-62
2023/01/14 14:29:56;;;;;;;;;;;;;;;;;;;;;
2023/01/14 14:33:13;;;;;;;;;;;;;;;;;;;;;
2023/01/14 14:42:53;;;;;;;;;2.00;2.00;;;;;13.48;84.14;100106.50;4958510;28;46106;-62
2023/01/14 14:46:02;;;;;;;;;;;;;;;;;;;;;
2023/01/14 14:48:54;;;;;;;;;1.25;1.00;;;;;13.42;83.90;100087.22;4957852;28;71241;-62
2023/01/14 14:52:19;;;;;;;;;1.00;1.00;;;;;13.29;84.26;100058.34;4958794;28;45322;-62
2023/01/14 14:55:22;;;;;;;;;0.00;0.00;;;;;13.37;84.18;100060.63;4954751;28;45549;-62
2023/01/14 14:58:26;;;;;;;;;;;;;;;;;;;;;
2023/01/14 15:01:08;;;;;;;;;;;;;;;;;;;;;
2023/01/14 15:03:58;;;;;;;;;;;;;;;;;;;;;
2023/01/14 15:06:30;;;;;;;;;2.00;1.00;;;;;13.44;84.35;100071.91;4945343;28;72722;-62
2023/01/14 15:15:25;;;;;;;;;1.00;1.00;;;;;13.33;84.17;100053.69;4946943;28;45333;-62
2023/01/14 15:18:08;;;;;;;;;;;;;;;;;;;;;
2023/01/14 15:21:07;;;;;;;;;;;;;;;;;;;;;
2023/01/14 15:23:50;;;;;;;;;;;;;;;;;;;;;